sensor_id;sensor_type;location;lat;lon;timestamp;temperature;humidity
49821;DHT22;36893;52.520;13.450;2023-03-12T00:02:24;18.90;70.70
49821;DHT22;36893;52.520;13.450;2023-03-12T00:12:25;18.90;70.60
49821;DHT22;36893;52.520;13.450;2023-03-12T00:22:26;18.90;70.60
49821;DHT22;36893;52.520;13.450;2023-03-12T00:32:26;18.90;70.60
49821;DHT22;36893;52.520;13.450;2023-03-12T00:42:27;18.90;70.50
49821;DHT22;36893;52.520;13.450;2023-03-12T00:52:28;18.90;70.50
49821;DHT22;36893;52.520;13.450;2023-03-12T01:02:28;18.90;70.50
49821;DHT22;36893;52.520;13.450;2023-03-12T01:12:29;18.90;70.50
49821;DHT22;36893;52.520;13.450;2023-03-12T01:22:30;18.90;70.50
49821;DHT22;36893;52.520;13.450;2023-03-12T01:32:31;18.80;70.40
49821;DHT22;36893;52.520;13.450;2023-03-12T01:42:31;18.80;70.40
49821;DHT22;36893;52.520;13.450;2023-03-12T01:52:35;18.80;70.40
49821;DHT22;36893;52.520;13.450;2023-03-12T02:02:37;18.80;70.30
49821;DHT22;36893;52.520;13.450;2023-03-12T02:12:38;18.80;70.30
49821;DHT22;36893;52.520;13.450;2023-03-12T02:22:41;18.80;70.30
49821;DHT22;36893;52.520;13.450;2023-03-12T02:32:46;18.80;70.30
49821;DHT22;36893;52.520;13.450;2023-03-12T02:42:48;18.80;71.10
49821;DHT22;36893;52.520;13.450;2023-03-12T02:52:48;18.80;70.30
49821;DHT22;36893;52.520;13.450;2023-03-12T03:02:49;18.80;70.30
49821;DHT22;36893;52.520;13.450;2023-03-12T03:12:50;18.70;70.10
49821;DHT22;36893;52.520;13.450;2023-03-12T03:22:51;18.70;70.10
49821;DHT22;36893;52.520;13.450;2023-03-12T03:32:52;18.70;70.10
49821;DHT22;36893;52.520;13.450;2023-03-12T03:42:52;18.70;70.10
49821;DHT22;36893;52.520;13.450;2023-03-12T03:52:53;18.70;70.10
49821;DHT22;36893;52.520;13.450;2023-03-12T04:02:54;18.70;70.10
49821;DHT22;36893;52.520;13.450;2023-03-12T04:12:55;18.60;70.10
49821;DHT22;36893;52.520;13.450;2023-03-12T04:22:55;18.70;70.10
49821;DHT22;36893;52.520;13.450;2023-03-12T04:32:57;18.60;70.10
49821;DHT22;36893;52.520;13.450;2023-03-12T04:42:58;18.60;70.00
49821;DHT22;36893;52.520;13.450;2023-03-12T04:52:58;18.70;70.10
49821;DHT22;36893;52.520;13.450;2023-03-12T05:02:59;18.60;70.10
49821;DHT22;36893;52.520;13.450;2023-03-12T05:13:00;18.60;70.00
49821;DHT22;36893;52.520;13.450;2023-03-12T05:23:00;18.60;70.00
49821;DHT22;36893;52.520;13.450;2023-03-12T05:33:01;18.60;70.00
49821;DHT22;36893;52.520;13.450;2023-03-12T05:43:02;18.50;70.00
49821;DHT22;36893;52.520;13.450;2023-03-12T05:53:03;18.50;69.90
49821;DHT22;36893;52.520;13.450;2023-03-12T06:03:04;18.50;69.90
49821;DHT22;36893;52.520;13.450;2023-03-12T06:13:05;18.50;69.80
49821;DHT22;36893;52.520;13.450;2023-03-12T06:23:06;18.50;69.90
49821;DHT22;36893;52.520;13.450;2023-03-12T06:33:06;18.50;69.80
49821;DHT22;36893;52.520;13.450;2023-03-12T06:43:08;18.50;69.80
49821;DHT22;36893;52.520;13.450;2023-03-12T06:53:11;18.50;69.80
49821;DHT22;36893;52.520;13.450;2023-03-12T07:03:12;18.50;69.80
49821;DHT22;36893;52.520;13.450;2023-03-12T07:13:13;18.50;69.80
49821;DHT22;36893;52.520;13.450;2023-03-12T07:23:14;18.50;69.70
49821;DHT22;36893;52.520;13.450;2023-03-12T07:33:19;18.50;69.70
49821;DHT22;36893;52.520;13.450;2023-03-12T07:43:21;18.50;69.70
49821;DHT22;36893;52.520;13.450;2023-03-12T07:53:22;18.50;69.60
49821;DHT22;36893;52.520;13.450;2023-03-12T08:03:23;18.60;69.60
49821;DHT22;36893;52.520;13.450;2023-03-12T08:13:25;18.60;69.70
49821;DHT22;36893;52.520;13.450;2023-03-12T08:23:26;18.60;69.60
49821;DHT22;36893;52.520;13.450;2023-03-12T08:33:27;18.60;69.60
49821;DHT22;36893;52.520;13.450;2023-03-12T08:43:28;18.70;69.70
49821;DHT22;36893;52.520;13.450;2023-03-12T08:53:30;18.80;69.60
49821;DHT22;36893;52.520;13.450;2023-03-12T09:03:32;18.80;69.50
49821;DHT22;36893;52.520;13.450;2023-03-12T09:13:32;18.90;69.40
49821;DHT22;36893;52.520;13.450;2023-03-12T09:23:33;19.00;69.40
49821;DHT22;36893;52.520;13.450;2023-03-12T09:33:33;19.00;69.40
49821;DHT22;36893;52.520;13.450;2023-03-12T09:43:38;19.00;69.40
49821;DHT22;36893;52.520;13.450;2023-03-12T09:53:44;19.10;69.50
49821;DHT22;36893;52.520;13.450;2023-03-12T10:04:18;19.10;69.40
49821;DHT22;36893;52.520;13.450;2023-03-12T10:14:39;19.10;69.40
49821;DHT22;36893;52.520;13.450;2023-03-12T10:35:19;19.20;69.40
49821;DHT22;36893;52.520;13.450;2023-03-12T10:45:27;19.20;69.40
49821;DHT22;36893;52.520;13.450;2023-03-12T10:55:33;19.20;69.40
49821;DHT22;36893;52.520;13.450;2023-03-12T11:05:45;19.20;69.40
49821;DHT22;36893;52.520;13.450;2023-03-12T11:15:48;19.30;69.50
49821;DHT22;36893;52.520;13.450;2023-03-12T11:36:36;19.30;69.40
49821;DHT22;36893;52.520;13.450;2023-03-12T11:57:12;19.30;69.40
49821;DHT22;36893;52.520;13.450;2023-03-12T12:07:52;19.40;69.50
49821;DHT22;36893;52.520;13.450;2023-03-12T12:18:08;19.30;69.40
49821;DHT22;36893;52.520;13.450;2023-03-12T12:38:34;19.30;69.40
49821;DHT22;36893;52.520;13.450;2023-03-12T12:48:42;19.40;69.50
49821;DHT22;36893;52.520;13.450;2023-03-12T12:59:17;19.40;69.60
49821;DHT22;36893;52.520;13.450;2023-03-12T13:09:51;19.40;69.80
49821;DHT22;36893;52.520;13.450;2023-03-12T13:19:59;19.40;69.80
49821;DHT22;36893;52.520;13.450;2023-03-12T13:40:52;19.40;70.10
49821;DHT22;36893;52.520;13.450;2023-03-12T13:51:10;19.40;70.10
49821;DHT22;36893;52.520;13.450;2023-03-12T14:01:19;19.60;70.10
49821;DHT22;36893;52.520;13.450;2023-03-12T14:22:03;19.90;69.90
49821;DHT22;36893;52.520;13.450;2023-03-12T14:32:11;20.00;69.80
49821;DHT22;36893;52.520;13.450;2023-03-12T14:42:25;20.10;69.80
49821;DHT22;36893;52.520;13.450;2023-03-12T14:52:28;20.20;70.00
49821;DHT22;36893;52.520;13.450;2023-03-12T15:02:30;20.20;70.00
49821;DHT22;36893;52.520;13.450;2023-03-12T15:12:34;20.30;70.00
49821;DHT22;36893;52.520;13.450;2023-03-12T15:22:36;20.40;70.10
49821;DHT22;36893;52.520;13.450;2023-03-12T15:32:37;20.40;70.10
49821;DHT22;36893;52.520;13.450;2023-03-12T15:42:40;20.50;70.10
49821;DHT22;36893;52.520;13.450;2023-03-12T15:52:57;20.50;70.20
49821;DHT22;36893;52.520;13.450;2023-03-12T16:03:03;20.40;70.40
49821;DHT22;36893;52.520;13.450;2023-03-12T16:13:10;20.30;70.50
49821;DHT22;36893;52.520;13.450;2023-03-12T16:23:17;20.20;70.60
49821;DHT22;36893;52.520;13.450;2023-03-12T16:33:20;20.20;70.70
49821;DHT22;36893;52.520;13.450;2023-03-12T16:43:24;20.10;70.90
49821;DHT22;36893;52.520;13.450;2023-03-12T16:53:27;20.10;71.00
49821;DHT22;36893;52.520;13.450;2023-03-12T17:03:33;20.00;70.90
49821;DHT22;36893;52.520;13.450;2023-03-12T17:13:35;20.00;71.10
49821;DHT22;36893;52.520;13.450;2023-03-12T17:23:36;20.00;71.10
49821;DHT22;36893;52.520;13.450;2023-03-12T17:33:36;19.90;71.20
49821;DHT22;36893;52.520;13.450;2023-03-12T17:43:37;19.90;71.20
49821;DHT22;36893;52.520;13.450;2023-03-12T17:53:38;19.80;71.30
49821;DHT22;36893;52.520;13.450;2023-03-12T18:03:41;19.80;71.30
49821;DHT22;36893;52.520;13.450;2023-03-12T18:13:45;19.70;71.30
49821;DHT22;36893;52.520;13.450;2023-03-12T18:23:48;19.70;71.40
49821;DHT22;36893;52.520;13.450;2023-03-12T18:33:49;19.70;71.40
49821;DHT22;36893;52.520;13.450;2023-03-12T18:43:52;19.60;71.30
49821;DHT22;36893;52.520;13.450;2023-03-12T18:53:53;19.60;71.30
49821;DHT22;36893;52.520;13.450;2023-03-12T19:03:54;19.70;71.20
49821;DHT22;36893;52.520;13.450;2023-03-12T19:13:55;19.70;71.20
49821;DHT22;36893;52.520;13.450;2023-03-12T19:23:55;19.70;71.30
49821;DHT22;36893;52.520;13.450;2023-03-12T19:33:59;19.70;71.40
49821;DHT22;36893;52.520;13.450;2023-03-12T19:44:00;19.80;71.50
49821;DHT22;36893;52.520;13.450;2023-03-12T19:54:00;20.00;71.30
49821;DHT22;36893;52.520;13.450;2023-03-12T20:04:01;20.20;71.10
49821;DHT22;36893;52.520;13.450;2023-03-12T20:14:07;20.30;71.00
49821;DHT22;36893;52.520;13.450;2023-03-12T20:24:10;20.40;70.90
49821;DHT22;36893;52.520;13.450;2023-03-12T20:34:10;20.50;70.90
49821;DHT22;36893;52.520;13.450;2023-03-12T20:44:11;20.60;70.90
49821;DHT22;36893;52.520;13.450;2023-03-12T20:54:12;20.60;70.90
49821;DHT22;36893;52.520;13.450;2023-03-12T21:04:12;20.70;70.90
49821;DHT22;36893;52.520;13.450;2023-03-12T21:14:13;20.80;71.00
49821;DHT22;36893;52.520;13.450;2023-03-12T21:24:14;20.80;71.10
49821;DHT22;36893;52.520;13.450;2023-03-12T21:34:15;20.90;71.20
49821;DHT22;36893;52.520;13.450;2023-03-12T21:44:16;20.90;71.20
49821;DHT22;36893;52.520;13.450;2023-03-12T21:54:16;20.90;71.20
49821;DHT22;36893;52.520;13.450;2023-03-12T22:04:17;20.90;71.40
49821;DHT22;36893;52.520;13.450;2023-03-12T22:14:18;20.80;71.60
49821;DHT22;36893;52.520;13.450;2023-03-12T22:24:18;20.70;71.70
49821;DHT22;36893;52.520;13.450;2023-03-12T22:34:19;20.60;71.90
49821;DHT22;36893;52.520;13.450;2023-03-12T22:44:19;20.50;72.00
49821;DHT22;36893;52.520;13.450;2023-03-12T22:54:20;20.50;72.10
49821;DHT22;36893;52.520;13.450;2023-03-12T23:04:21;20.40;72.20
49821;DHT22;36893;52.520;13.450;2023-03-12T23:14:21;20.40;72.20
49821;DHT22;36893;52.520;13.450;2023-03-12T23:24:22;20.40;72.30
49821;DHT22;36893;52.520;13.450;2023-03-12T23:34:23;20.40;72.30
49821;DHT22;36893;52.520;13.450;2023-03-12T23:44:23;20.30;72.30
49821;DHT22;36893;52.520;13.450;2023-03-12T23:54:24;20.20;72.40
